Time;durP1;ratioP1;P1;durP2;ratioP2;P2;SDS_P1;SDS_P2;PMS_P1;PMS_P2;Temp;Humidity;BMP_temperature;BMP_pressure;BME280_temperature;BME280_humidity;BME280_pressure;Samples;Min_cycle;Max_cycle;Signal;HPM_P1;HPM_P2
2023/04/02 00:01:27;;;;;;;12.33;9.17;;;8.20;99.90;;;;;;5037780;28;20382;-82
2023/04/02 00:03:58;;;;;;;15.00;10.10;;;8.10;99.90;;;;;;5026829;28;20116;-81
2023/04/02 00:06:32;;;;;;;14.23;9.30;;;8.10;99.90;;;;;;5038637;28;20032;-82
2023/04/02 00:09:20;;;;;;;12.70;9.43;;;8.10;99.90;;;;;;5038962;28;20025;-82
2023/04/02 00:11:48;;;;;;;12.73;8.03;;;8.10;99.90;;;;;;5057432;28;20028;-82
2023/04/02 00:14:36;;;;;;;12.63;9.07;;;8.00;99.90;;;;;;5057090;28;20036;-82
2023/04/02 00:17:04;;;;;;;12.30;8.73;;;8.00;99.90;;;;;;5055060;28;20021;-83
2023/04/02 00:19:49;;;;;;;12.40;7.20;;;8.10;99.90;;;;;;5054768;28;20028;-82
2023/04/02 00:22:24;;;;;;;11.93;8.10;;;8.00;99.90;;;;;;5054234;28;20024;-82
2023/04/02 00:24:53;;;;;;;9.07;6.30;;;8.00;99.90;;;;;;5053970;28;20055;-82
2023/04/02 00:27:20;;;;;;;11.13;7.50;;;8.00;99.90;;;;;;5055404;28;20028;-82
2023/04/02 00:29:51;;;;;;;10.30;7.50;;;8.00;99.90;;;;;;5037806;28;20025;-82
2023/04/02 00:32:30;;;;;;;10.60;7.13;;;8.00;99.90;;;;;;5037337;28;20094;-82
2023/04/02 00:34:57;;;;;;;11.50;7.17;;;7.90;99.90;;;;;;5053847;28;20036;-82
2023/04/02 00:37:26;;;;;;;11.27;7.60;;;7.90;99.90;;;;;;5037246;28;20385;-83
2023/04/02 00:40:06;;;;;;;14.33;8.23;;;7.90;99.90;;;;;;5055355;28;20033;-82
2023/04/02 00:42:33;;;;;;;10.67;8.10;;;8.00;99.90;;;;;;5053747;28;20040;-82
2023/04/02 00:45:00;;;;;;;14.47;9.30;;;7.90;99.90;;;;;;5055070;28;20163;-82
2023/04/02 00:47:33;;;;;;;11.67;8.20;;;7.90;99.90;;;;;;5037195;28;20064;-82
2023/04/02 00:50:06;;;;;;;11.60;8.43;;;7.90;99.90;;;;;;5054831;28;20508;-82
2023/04/02 00:52:34;;;;;;;11.80;8.55;;;7.90;99.90;;;;;;5053883;28;20373;-82
2023/04/02 00:55:06;;;;;;;13.33;8.77;;;7.90;99.90;;;;;;5037798;28;20032;-81
2023/04/02 00:57:32;;;;;;;11.07;8.23;;;8.00;99.90;;;;;;5054643;28;20041;-81
2023/04/02 01:00:14;;;;;;;13.13;8.87;;;7.90;99.90;;;;;;5054500;28;20184;-81
2023/04/02 01:02:40;;;;;;;14.23;8.77;;;7.90;99.90;;;;;;5036892;28;20476;-81
2023/04/02 01:05:15;;;;;;;12.77;8.30;;;7.90;99.90;;;;;;5036828;28;20025;-81
2023/04/02 01:08:05;;;;;;;11.77;8.27;;;7.90;99.90;;;;;;5037202;28;20082;-82
2023/04/02 01:10:54;;;;;;;14.93;7.60;;;7.90;99.90;;;;;;5036279;28;20041;-82
2023/04/02 01:13:45;;;;;;;12.00;7.90;;;7.80;99.90;;;;;;5053109;28;20025;-82
2023/04/02 01:16:35;;;;;;;12.63;7.40;;;7.90;99.90;;;;;;5053466;28;20056;-81
2023/04/02 01:19:04;;;;;;;12.07;7.90;;;7.80;99.90;;;;;;5054488;28;20025;-81
2023/04/02 01:21:53;;;;;;;13.03;6.93;;;7.80;99.90;;;;;;5036706;28;20370;-82
2023/04/02 01:24:20;;;;;;;11.47;7.87;;;7.80;99.90;;;;;;5053555;28;20128;-82
2023/04/02 01:26:56;;;;;;;12.17;7.63;;;7.80;99.90;;;;;;5036451;28;20044;-83
2023/04/02 01:29:24;;;;;;;11.83;8.37;;;7.80;99.90;;;;;;5052986;28;20071;-83
2023/04/02 01:31:51;;;;;;;14.60;9.53;;;7.80;99.90;;;;;;5052676;28;20021;-82
2023/04/02 01:34:20;;;;;;;12.03;8.43;;;7.70;99.90;;;;;;5053063;28;20492;-82
2023/04/02 01:36:58;;;;;;;11.00;7.53;;;7.70;99.90;;;;;;5052656;28;20025;-82
2023/04/02 01:39:42;;;;;;;12.73;7.43;;;7.70;99.90;;;;;;5036246;28;20032;-81
2023/04/02 01:42:23;;;;;;;11.52;7.38;;;7.70;99.90;;;;;;5054335;28;20112;-82
2023/04/02 01:44:51;;;;;;;12.93;5.87;;;7.70;99.90;;;;;;5053223;28;20029;-82
2023/04/02 01:47:22;;;;;;;11.83;7.13;;;7.60;99.90;;;;;;5052966;28;20017;-82
2023/04/02 01:49:47;;;;;;;11.60;6.60;;;7.60;99.90;;;;;;5052569;28;20029;-82
2023/04/02 01:52:34;;;;;;;9.67;6.07;;;7.60;99.90;;;;;;5036269;28;20039;-82
2023/04/02 01:55:01;;;;;;;11.07;6.63;;;7.60;99.90;;;;;;5052421;28;20024;-82
2023/04/02 01:57:27;;;;;;;9.20;6.30;;;7.60;99.90;;;;;;5053657;28;20127;-82
2023/04/02 01:59:53;;;;;;;11.03;6.33;;;7.70;99.90;;;;;;5052775;28;20127;-82
2023/04/02 02:02:20;;;;;;;15.27;7.53;;;7.60;99.90;;;;;;5053158;28;20098;-82
2023/04/02 02:04:47;;;;;;;11.13;6.60;;;7.60;99.90;;;;;;5047190;28;20040;-82
2023/04/02 02:07:15;;;;;;;11.73;7.57;;;7.60;99.90;;;;;;5048878;28;20029;-82
2023/04/02 02:09:42;;;;;;;14.23;7.40;;;7.60;99.90;;;;;;5056779;28;20485;-81
2023/04/02 02:12:12;;;;;;;10.67;7.27;;;7.60;99.90;;;;;;5053333;28;20039;-82
2023/04/02 02:14:38;;;;;;;10.87;7.60;;;7.60;99.90;;;;;;5052472;28;20464;-82
2023/04/02 02:17:12;;;;;;;10.67;7.13;;;7.60;99.90;;;;;;5053274;28;20111;-81
2023/04/02 02:19:44;;;;;;;10.88;6.10;;;7.60;99.90;;;;;;5052191;28;20029;-82
2023/04/02 02:22:30;;;;;;;12.77;7.70;;;7.60;99.90;;;;;;5052129;28;20107;-82
2023/04/02 02:24:59;;;;;;;9.80;6.90;;;7.60;99.90;;;;;;5052118;28;20021;-82
2023/04/02 02:27:25;;;;;;;17.83;9.13;;;7.60;99.90;;;;;;5052523;28;20025;-82
2023/04/02 02:29:52;;;;;;;15.07;10.40;;;7.50;99.90;;;;;;5053391;28;20029;-83
2023/04/02 02:32:22;;;;;;;18.93;11.90;;;7.50;99.90;;;;;;5052771;28;20025;-82
2023/04/02 02:34:53;;;;;;;20.00;12.83;;;7.50;99.90;;;;;;5035536;28;20021;-82
2023/04/02 02:37:27;;;;;;;17.30;12.97;;;7.60;99.90;;;;;;5035273;28;20028;-82
2023/04/02 02:39:57;;;;;;;22.67;13.02;;;7.50;99.90;;;;;;5053005;28;20496;-81
2023/04/02 02:42:47;;;;;;;17.70;12.23;;;7.40;99.90;;;;;;5053201;28;20028;-82
2023/04/02 02:45:19;;;;;;;14.60;11.37;;;7.40;99.90;;;;;;5035543;28;20075;-81
2023/04/02 02:47:46;;;;;;;17.03;11.97;;;7.40;99.90;;;;;;5035242;28;20112;-82
2023/04/02 02:50:25;;;;;;;17.47;12.07;;;7.40;99.90;;;;;;5053091;28;20033;-82
2023/04/02 02:52:53;;;;;;;18.40;11.00;;;7.30;99.90;;;;;;5035364;28;20368;-80
2023/04/02 02:55:27;;;;;;;16.50;11.00;;;7.30;99.90;;;;;;5052881;28;20029;-82
2023/04/02 02:57:58;;;;;;;16.92;11.23;;;7.20;99.90;;;;;;5035028;28;20045;-81
2023/04/02 03:00:25;;;;;;;15.13;10.07;;;7.20;99.90;;;;;;5051784;28;20480;-81
2023/04/02 03:02:53;;;;;;;16.47;9.63;;;7.20;99.90;;;;;;5034700;28;20559;-81
2023/04/02 03:05:25;;;;;;;14.00;9.03;;;7.20;99.90;;;;;;5051353;28;20036;-81
2023/04/02 03:07:53;;;;;;;12.20;7.93;;;7.10;99.90;;;;;;5051820;28;20057;-81
2023/04/02 03:10:35;;;;;;;13.40;7.90;;;7.10;99.90;;;;;;5052979;28;20036;-81
2023/04/02 03:13:21;;;;;;;13.87;8.33;;;7.00;99.90;;;;;;5051332;28;20017;-82
2023/04/02 03:16:19;;;;;;;14.87;8.80;;;7.10;99.90;;;;;;5052825;28;20028;-82
2023/04/02 03:19:01;;;;;;;12.70;8.03;;;7.00;99.90;;;;;;5051703;28;20024;-82
2023/04/02 03:21:32;;;;;;;10.73;7.40;;;7.10;99.90;;;;;;5034310;28;20132;-81
2023/04/02 03:24:04;;;;;;;12.60;7.77;;;7.00;99.90;;;;;;5052895;28;20021;-82
2023/04/02 03:26:55;;;;;;;12.40;7.73;;;7.00;99.90;;;;;;5052610;28;20079;-81
2023/04/02 03:29:33;;;;;;;14.10;7.50;;;7.00;99.90;;;;;;5050962;28;20029;-81
2023/04/02 03:32:19;;;;;;;13.03;7.63;;;7.00;99.90;;;;;;5052111;28;20469;-80
2023/04/02 03:35:04;;;;;;;11.93;7.33;;;7.00;99.90;;;;;;5053563;28;20090;-81
2023/04/02 03:37:41;;;;;;;12.70;8.23;;;6.90;99.90;;;;;;5056432;28;20079;-81
2023/04/02 03:40:14;;;;;;;12.40;7.37;;;7.00;99.90;;;;;;5054464;28;20100;-81
2023/04/02 03:43:05;;;;;;;12.30;8.32;;;7.00;99.90;;;;;;5054977;28;20108;-81
2023/04/02 03:45:42;;;;;;;11.13;7.27;;;7.00;99.90;;;;;;5056409;28;20373;-81
2023/04/02 03:48:43;;;;;;;12.47;8.37;;;7.00;99.90;;;;;;5056071;28;20108;-81
2023/04/02 03:51:51;;;;;;;15.90;8.37;;;7.00;99.90;;;;;;5056145;28;20025;-81
2023/04/02 03:54:18;;;;;;;12.27;8.90;;;7.00;99.90;;;;;;5025287;28;20042;-82
2023/04/02 03:56:46;;;;;;;12.83;8.70;;;7.00;99.90;;;;;;5038306;28;20027;-81
2023/04/02 03:59:33;;;;;;;13.90;9.43;;;6.90;99.90;;;;;;5055949;28;20405;-81
2023/04/02 04:02:10;;;;;;;13.07;8.90;;;6.90;99.90;;;;;;5054521;28;20127;-81
2023/04/02 04:04:39;;;;;;;17.17;9.27;;;6.90;99.90;;;;;;5037962;28;20491;-81
2023/04/02 04:07:13;;;;;;;14.37;9.60;;;6.80;99.90;;;;;;5057652;28;20029;-81
2023/04/02 04:09:41;;;;;;;13.82;9.43;;;6.80;99.90;;;;;;5054679;28;20488;-81
2023/04/02 04:12:28;;;;;;;15.27;9.10;;;6.80;99.90;;;;;;5054941;28;20021;-81
2023/04/02 04:15:03;;;;;;;15.47;9.13;;;6.80;99.90;;;;;;5038179;28;20029;-83
2023/04/02 04:17:52;;;;;;;14.50;9.47;;;6.80;99.90;;;;;;5055747;28;20432;-82
2023/04/02 04:20:33;;;;;;;19.40;10.97;;;6.80;99.90;;;;;;5054344;28;20029;-82
2023/04/02 04:23:29;;;;;;;16.23;10.83;;;6.70;99.90;;;;;;5037379;28;20025;-82
2023/04/02 04:26:08;;;;;;;16.03;11.13;;;6.70;99.90;;;;;;5054213;28;20017;-82
2023/04/02 04:29:04;;;;;;;18.33;11.53;;;6.70;99.90;;;;;;5037562;28;20049;-82
2023/04/02 04:31:45;;;;;;;18.53;12.27;;;6.60;99.90;;;;;;5028538;28;20143;-82
2023/04/02 04:34:19;;;;;;;23.03;12.20;;;6.60;99.90;;;;;;5037560;28;20028;-82
2023/04/02 04:36:56;;;;;;;14.30;10.20;;;6.60;99.90;;;;;;5055777;28;20044;-81
2023/04/02 04:39:43;;;;;;;16.17;10.40;;;6.50;99.90;;;;;;5037619;28;20068;-83
2023/04/02 04:42:19;;;;;;;16.90;9.70;;;6.50;99.90;;;;;;5037541;28;20380;-82
2023/04/02 04:45:02;;;;;;;21.07;10.03;;;6.50;99.90;;;;;;5055204;28;20036;-81
2023/04/02 04:47:39;;;;;;;16.20;9.55;;;6.50;99.90;;;;;;5037103;28;20029;-82
2023/04/02 04:50:14;;;;;;;14.53;9.87;;;6.40;99.90;;;;;;5055204;28;20027;-81
2023/04/02 04:52:43;;;;;;;16.73;9.37;;;6.40;99.90;;;;;;5056117;28;20017;-81
2023/04/02 04:55:29;;;;;;;14.67;8.77;;;6.40;99.90;;;;;;5067204;28;20358;-81
2023/04/02 04:57:59;;;;;;;12.53;8.23;;;6.30;99.90;;;;;;5051157;28;20124;-81
2023/04/02 05:00:39;;;;;;;12.10;7.20;;;6.30;99.90;;;;;;5034034;28;20084;-81
2023/04/02 05:03:28;;;;;;;10.30;6.27;;;6.30;99.90;;;;;;5033918;28;20021;-80
2023/04/02 05:06:08;;;;;;;10.57;5.90;;;6.30;99.90;;;;;;5033804;28;20025;-80
2023/04/02 05:08:38;;;;;;;10.40;5.83;;;6.30;99.90;;;;;;5033030;28;20048;-81
2023/04/02 05:11:18;;;;;;;9.10;4.50;;;6.30;99.90;;;;;;5033129;28;20087;-81
2023/04/02 05:13:53;;;;;;;13.03;5.67;;;6.30;99.90;;;;;;5033011;28;20029;-81
2023/04/02 05:17:00;;;;;;;10.83;5.17;;;6.30;99.90;;;;;;5033398;28;20104;-81
2023/04/02 05:19:41;;;;;;;13.37;4.73;;;6.20;99.90;;;;;;4992954;28;20037;-81
2023/04/02 05:22:27;;;;;;;13.13;5.10;;;6.20;99.90;;;;;;5027014;28;20037;-80
2023/04/02 05:25:01;;;;;;;9.23;4.10;;;6.20;99.90;;;;;;5033415;28;20026;-80
2023/04/02 05:27:42;;;;;;;7.88;3.85;;;6.20;99.90;;;;;;5034697;28;20021;-80
2023/04/02 05:30:12;;;;;;;9.73;3.83;;;6.10;99.90;;;;;;5033190;28;20099;-80
2023/04/02 05:32:44;;;;;;;7.80;3.83;;;6.00;99.90;;;;;;5032462;28;20057;-79
2023/04/02 05:35:17;;;;;;;8.30;3.53;;;6.00;99.90;;;;;;5033142;28;20477;-80
2023/04/02 05:37:44;;;;;;;7.90;3.30;;;6.00;99.90;;;;;;5032696;28;20247;-80
2023/04/02 05:40:21;;;;;;;7.80;3.33;;;5.90;99.80;;;;;;5016378;28;20048;-81
2023/04/02 05:42:51;;;;;;;13.53;3.70;;;5.90;99.60;;;;;;5034059;28;20021;-81
2023/04/02 05:45:25;;;;;;;7.93;3.30;;;5.90;99.30;;;;;;5032435;28;20029;-81
2023/04/02 05:48:00;;;;;;;7.47;2.97;;;5.90;99.30;;;;;;5032548;28;20032;-81
2023/04/02 05:50:36;;;;;;;6.13;3.07;;;5.80;99.30;;;;;;5032765;28;20080;-81
2023/04/02 05:53:26;;;;;;;7.70;2.80;;;5.80;99.40;;;;;;5032901;28;20116;-82
2023/04/02 05:56:28;;;;;;;8.17;2.50;;;5.80;99.80;;;;;;5032314;28;20034;-81
2023/04/02 05:59:01;;;;;;;6.73;3.23;;;5.80;99.30;;;;;;5032066;28;20059;-81
2023/04/02 06:01:44;;;;;;;10.30;2.50;;;5.80;99.50;;;;;;5015492;28;20479;-81
2023/04/02 06:04:21;;;;;;;9.27;2.90;;;5.70;99.70;;;;;;5019449;28;20037;-81
2023/04/02 06:07:00;;;;;;;7.67;2.80;;;5.80;99.80;;;;;;5015700;28;20098;-81
2023/04/02 06:09:26;;;;;;;8.00;2.80;;;5.80;99.50;;;;;;5032031;28;20029;-82
2023/04/02 06:12:10;;;;;;;10.53;3.07;;;5.80;99.20;;;;;;5016560;28;20029;-83
2023/04/02 06:14:36;;;;;;;7.53;2.00;;;5.80;99.20;;;;;;5010598;28;20029;-82
2023/04/02 06:17:01;;;;;;;7.53;2.10;;;5.70;99.10;;;;;;4995381;28;20026;-82
2023/04/02 06:19:36;;;;;;;7.70;1.90;;;5.70;99.00;;;;;;5012522;28;20037;-80
2023/04/02 06:22:31;;;;;;;8.63;1.83;;;5.70;98.80;;;;;;5012227;28;20026;-80
2023/04/02 06:24:59;;;;;;;;;;;5.70;98.80;;;;;;5012359;28;20022;-80
2023/04/02 06:27:26;;;;;;;6.37;2.10;;;5.70;98.70;;;;;;5012288;28;19906;-80
2023/04/02 06:29:58;;;;;;;6.60;2.03;;;5.80;98.60;;;;;;5012278;28;20034;-80
2023/04/02 06:32:27;;;;;;;7.67;2.00;;;5.80;98.40;;;;;;5028477;28;20032;-80
2023/04/02 06:34:53;;;;;;;11.13;2.37;;;5.80;98.60;;;;;;5027934;28;20030;-80
2023/04/02 06:37:37;;;;;;;6.13;1.83;;;5.80;98.40;;;;;;5010813;28;20026;-80
2023/04/02 06:40:05;;;;;;;7.97;2.20;;;5.80;97.90;;;;;;5028378;28;20037;-81
2023/04/02 06:42:37;;;;;;;9.53;2.30;;;5.70;97.80;;;;;;5028668;28;20095;-81
2023/04/02 06:45:04;;;;;;;6.50;2.07;;;5.70;97.90;;;;;;5028597;28;20425;-80
2023/04/02 06:47:42;;;;;;;6.70;2.40;;;5.70;97.90;;;;;;5028358;28;20112;-81
2023/04/02 06:50:26;;;;;;;6.57;1.80;;;5.60;97.90;;;;;;5028713;28;20030;-81
2023/04/02 06:52:58;;;;;;;6.80;2.22;;;5.60;98.00;;;;;;5028652;28;20081;-80
2023/04/02 06:55:46;;;;;;;6.83;1.60;;;5.60;98.00;;;;;;5028638;28;20087;-82
2023/04/02 06:58:14;;;;;;;6.07;1.30;;;5.60;97.90;;;;;;5029113;28;20045;-82
2023/04/02 07:00:45;;;;;;;5.70;1.60;;;5.60;97.80;;;;;;5057090;28;20047;-81
2023/04/02 07:03:28;;;;;;;5.77;1.93;;;5.50;97.60;;;;;;5055043;28;20031;-81
2023/04/02 07:05:54;;;;;;;4.07;1.17;;;5.60;97.60;;;;;;5054885;28;20021;-82
2023/04/02 07:08:20;;;;;;;5.30;1.20;;;5.60;97.70;;;;;;5055121;28;20094;-81
2023/04/02 07:10:46;;;;;;;4.73;1.10;;;5.50;97.60;;;;;;5058261;28;20035;-80
2023/04/02 07:13:17;;;;;;;7.57;1.70;;;5.50;97.80;;;;;;5058822;28;20037;-80
2023/04/02 07:15:49;;;;;;;4.83;1.60;;;5.60;97.50;;;;;;5068686;28;20052;-81
2023/04/02 07:18:29;;;;;;;6.53;1.73;;;5.60;97.50;;;;;;5058803;28;20021;-82
2023/04/02 07:20:55;;;;;;;5.17;1.73;;;5.70;97.40;;;;;;5076801;28;20037;-79
2023/04/02 07:23:21;;;;;;;6.33;1.87;;;5.70;97.50;;;;;;5058894;28;20142;-79
2023/04/02 07:25:49;;;;;;;6.47;1.63;;;5.70;97.60;;;;;;5058565;28;20060;-81
2023/04/02 07:28:15;;;;;;;6.60;2.23;;;5.80;97.40;;;;;;5062873;28;20074;-79
2023/04/02 07:30:41;;;;;;;4.37;1.77;;;5.80;96.90;;;;;;5076477;28;20020;-80
2023/04/02 07:33:12;;;;;;;7.57;1.97;;;5.80;97.10;;;;;;5074557;28;20111;-80
2023/04/02 07:35:39;;;;;;;4.23;1.70;;;5.90;97.20;;;;;;5074855;28;20086;-80
2023/04/02 07:38:05;;;;;;;8.50;2.17;;;5.90;97.20;;;;;;5075419;28;20040;-80
2023/04/02 07:40:31;;;;;;;8.50;2.57;;;5.90;96.70;;;;;;5059269;28;20033;-80
2023/04/02 07:42:56;;;;;;;6.83;2.60;;;5.90;96.40;;;;;;5049990;28;20040;-80
2023/04/02 07:45:22;;;;;;;6.93;2.50;;;5.90;96.10;;;;;;5049944;28;20058;-79
2023/04/02 07:47:47;;;;;;;6.57;2.47;;;5.90;96.20;;;;;;5034010;28;20032;-79
2023/04/02 07:50:13;;;;;;;8.70;2.00;;;6.00;96.00;;;;;;5044200;28;20032;-80
2023/04/02 07:52:43;;;;;;;6.63;2.60;;;6.00;96.30;;;;;;5050064;28;20127;-80
2023/04/02 07:55:11;;;;;;;5.40;2.43;;;6.10;96.40;;;;;;5058083;28;20029;-79
2023/04/02 07:57:56;;;;;;;6.77;2.63;;;6.10;96.40;;;;;;5071647;28;20052;-80
2023/04/02 08:00:23;;;;;;;8.67;2.33;;;6.10;96.20;;;;;;5060280;28;20044;-80
2023/04/02 08:02:50;;;;;;;5.53;2.73;;;6.10;95.60;;;;;;5068243;28;20411;-81
2023/04/02 08:05:16;;;;;;;8.10;3.23;;;6.10;95.40;;;;;;5084907;28;20027;-80
2023/04/02 08:07:43;;;;;;;8.17;2.53;;;6.20;95.60;;;;;;5057992;28;20036;-80
2023/04/02 08:10:10;;;;;;;6.20;2.47;;;6.20;95.60;;;;;;5069596;28;20469;-80
2023/04/02 08:12:37;;;;;;;7.10;2.63;;;6.20;95.50;;;;;;5076184;28;20052;-81
2023/04/02 08:15:07;;;;;;;6.03;2.80;;;6.20;95.60;;;;;;5057526;28;20025;-81
2023/04/02 08:17:33;;;;;;;6.03;2.73;;;6.20;95.30;;;;;;5057744;28;20036;-81
2023/04/02 08:20:03;;;;;;;9.37;3.37;;;6.20;95.20;;;;;;5042607;28;20758;-80
2023/04/02 08:22:29;;;;;;;8.37;2.77;;;6.20;94.90;;;;;;5049356;28;20461;-80
2023/04/02 08:24:55;;;;;;;6.67;2.43;;;6.20;94.80;;;;;;5062333;28;20444;-80
2023/04/02 08:27:23;;;;;;;6.33;1.90;;;6.10;94.60;;;;;;5062295;28;20032;-80
2023/04/02 08:29:49;;;;;;;8.37;2.53;;;6.10;94.40;;;;;;5040289;28;20040;-82
2023/04/02 08:32:15;;;;;;;6.23;2.50;;;6.10;94.70;;;;;;5030912;28;20379;-82
2023/04/02 08:34:42;;;;;;;8.67;3.00;;;6.10;94.60;;;;;;5057005;28;20160;-82
2023/04/02 08:37:12;;;;;;;6.63;2.27;;;6.10;94.60;;;;;;5057974;28;20025;-83
2023/04/02 08:39:38;;;;;;;4.50;1.90;;;6.10;94.90;;;;;;5075710;28;20029;-82
2023/04/02 08:42:34;;;;;;;5.53;1.73;;;6.10;95.00;;;;;;5040952;28;20487;-82
2023/04/02 08:45:29;;;;;;;4.50;1.90;;;6.20;95.00;;;;;;5063654;28;20427;-83
2023/04/02 08:47:56;;;;;;;;;;;6.20;95.00;;;;;;5073224;28;20392;-81
2023/04/02 08:50:35;;;;;;;6.00;2.00;;;6.20;95.00;;;;;;5056938;28;19909;-81
2023/04/02 08:53:24;;;;;;;7.30;2.17;;;6.30;95.10;;;;;;5057510;28;20086;-81
2023/04/02 08:56:04;;;;;;;13.00;2.90;;;6.40;94.90;;;;;;5056498;28;20017;-81
2023/04/02 08:59:00;;;;;;;8.73;2.73;;;6.50;94.50;;;;;;5063168;28;20075;-81
2023/04/02 09:01:46;;;;;;;7.73;2.70;;;6.40;93.60;;;;;;5052692;28;20123;-81
2023/04/02 09:04:21;;;;;;;6.70;2.00;;;6.60;93.40;;;;;;5061108;28;20078;-81
2023/04/02 09:06:51;;;;;;;8.73;2.30;;;6.40;93.40;;;;;;5040037;28;20045;-81
2023/04/02 09:09:18;;;;;;;5.27;2.17;;;6.50;93.20;;;;;;5036399;28;20052;-81
2023/04/02 09:12:00;;;;;;;5.33;2.10;;;6.50;93.40;;;;;;5039477;28;20025;-81
2023/04/02 09:15:04;;;;;;;5.93;2.23;;;6.50;93.80;;;;;;5074842;28;20025;-81
2023/04/02 09:17:31;;;;;;;5.57;1.70;;;6.60;93.90;;;;;;5034765;28;20154;-81
2023/04/02 09:20:17;;;;;;;7.77;1.90;;;6.70;93.60;;;;;;5051006;28;20067;-82
2023/04/02 09:22:45;;;;;;;4.97;1.70;;;6.80;93.70;;;;;;5072595;28;20020;-82
2023/04/02 09:25:23;;;;;;;5.03;1.77;;;6.90;93.60;;;;;;5056502;28;20115;-81
2023/04/02 09:27:52;;;;;;;9.13;2.33;;;6.90;93.30;;;;;;5055923;28;20020;-81
2023/04/02 09:30:28;;;;;;;7.07;2.27;;;7.00;93.00;;;;;;5074147;28;20175;-81
2023/04/02 09:32:56;;;;;;;5.17;1.67;;;7.00;92.10;;;;;;5063401;28;20063;-81
2023/04/02 09:35:27;;;;;;;6.17;1.53;;;7.00;92.10;;;;;;5055608;28;20116;-81
2023/04/02 09:38:15;;;;;;;6.90;1.80;;;7.10;91.90;;;;;;5073803;28;20028;-81
2023/04/02 09:41:03;;;;;;;6.77;1.90;;;7.20;91.30;;;;;;5056165;28;20048;-81
2023/04/02 09:43:31;;;;;;;8.53;1.77;;;7.20;91.30;;;;;;5055900;28;20028;-81
2023/04/02 09:46:28;;;;;;;4.47;1.77;;;7.20;91.20;;;;;;5055977;28;20025;-81
2023/04/02 09:49:02;;;;;;;7.53;2.53;;;7.30;91.40;;;;;;5055016;28;20045;-81
2023/04/02 09:51:32;;;;;;;7.00;2.03;;;7.30;90.70;;;;;;5073531;28;20028;-80
2023/04/02 09:54:03;;;;;;;7.83;1.83;;;7.30;91.20;;;;;;5039202;28;20032;-80
2023/04/02 09:56:38;;;;;;;6.53;1.80;;;7.40;91.20;;;;;;5055494;28;20233;-81
2023/04/02 09:59:05;;;;;;;4.60;1.37;;;7.50;91.00;;;;;;5044320;28;20045;-82
2023/04/02 10:01:37;;;;;;;5.87;1.73;;;7.50;90.00;;;;;;5058513;28;20040;-80
2023/04/02 10:04:06;;;;;;;4.40;1.27;;;7.50;89.80;;;;;;5073487;28;20115;-80
2023/04/02 10:06:33;;;;;;;6.40;1.30;;;7.50;89.20;;;;;;5055911;28;20017;-81
2023/04/02 10:09:20;;;;;;;6.13;1.43;;;7.50;89.50;;;;;;5055479;28;20077;-80
2023/04/02 10:11:47;;;;;;;5.17;1.40;;;7.50;89.60;;;;;;5073363;28;20377;-80
2023/04/02 10:14:27;;;;;;;5.47;1.47;;;7.50;89.20;;;;;;5046507;28;20028;-81
2023/04/02 10:17:20;;;;;;;3.63;1.10;;;7.50;89.30;;;;;;5072167;28;20070;-81
2023/04/02 10:20:05;;;;;;;3.60;1.30;;;7.50;88.20;;;;;;5070357;28;20032;-81
2023/04/02 10:22:31;;;;;;;4.77;1.17;;;7.50;88.30;;;;;;5056292;28;20028;-80
2023/04/02 10:25:00;;;;;;;3.20;1.03;;;7.50;87.90;;;;;;5023200;28;20111;-82
2023/04/02 10:27:36;;;;;;;2.53;0.90;;;7.50;88.90;;;;;;5055419;28;20097;-81
2023/04/02 10:30:32;;;;;;;5.20;1.20;;;7.70;90.20;;;;;;5058368;28;20025;-81
2023/04/02 10:33:08;;;;;;;9.70;0.70;;;8.70;92.00;;;;;;5044843;28;20120;-81
2023/04/02 10:36:07;;;;;;;2.65;0.68;;;9.70;92.80;;;;;;5053932;28;20434;-81
2023/04/02 10:38:51;;;;;;;1.27;0.47;;;10.80;93.10;;;;;;5036518;28;20029;-82
2023/04/02 10:41:51;;;;;;;3.95;0.70;;;11.70;92.90;;;;;;5040803;28;20036;-82
2023/04/02 10:44:37;;;;;;;3.15;0.75;;;12.20;92.20;;;;;;5065279;28;20479;-82
2023/04/02 10:47:33;;;;;;;2.00;0.40;;;12.90;91.80;;;;;;5051827;28;20123;-82
2023/04/02 10:50:31;;;;;;;4.90;0.57;;;13.80;91.20;;;;;;5051922;28;20043;-82
2023/04/02 10:53:12;;;;;;;4.30;1.00;;;14.60;87.60;;;;;;5058594;28;20091;-82
2023/04/02 10:55:43;;;;;;;3.97;0.73;;;15.00;86.10;;;;;;5054415;28;20023;-82
2023/04/02 10:58:30;;;;;;;4.22;0.80;;;15.60;82.20;;;;;;5046578;28;20049;-82
2023/04/02 11:01:02;;;;;;;3.60;0.90;;;15.80;75.30;;;;;;5065409;28;20111;-81
2023/04/02 11:03:35;;;;;;;5.10;1.10;;;15.60;68.70;;;;;;5060700;28;20029;-82
2023/04/02 11:06:24;;;;;;;4.47;1.00;;;15.40;66.80;;;;;;5041226;28;20079;-81
2023/04/02 11:08:52;;;;;;;2.50;0.75;;;15.20;67.00;;;;;;5038081;28;20043;-82
2023/04/02 11:11:22;;;;;;;2.50;0.70;;;15.70;69.50;;;;;;5055117;28;20040;-82
2023/04/02 11:14:14;;;;;;;1.98;0.50;;;16.40;69.30;;;;;;5046777;28;20025;-82
2023/04/02 11:16:40;;;;;;;4.13;0.77;;;17.20;68.50;;;;;;5056601;28;20033;-80
2023/04/02 11:19:15;;;;;;;3.90;0.60;;;18.10;69.70;;;;;;5041450;28;20078;-80
2023/04/02 11:22:20;;;;;;;4.30;0.88;;;18.40;64.60;;;;;;5054692;28;20036;-80
2023/04/02 11:24:55;;;;;;;3.53;0.65;;;18.60;59.10;;;;;;5062179;28;20115;-81
2023/04/02 11:27:32;;;;;;;4.22;0.80;;;18.80;58.00;;;;;;5029425;28;20109;-81
2023/04/02 11:30:04;;;;;;;3.38;0.60;;;19.00;57.10;;;;;;5066522;28;20063;-81
2023/04/02 11:32:34;;;;;;;2.10;0.60;;;19.30;57.10;;;;;;5066967;28;20032;-82
2023/04/02 11:35:22;;;;;;;2.53;0.90;;;19.70;55.70;;;;;;5048428;28;20487;-81
2023/04/02 11:37:48;;;;;;;3.30;0.63;;;20.00;55.90;;;;;;5049446;28;20389;-81
2023/04/02 11:40:14;;;;;;;2.00;0.45;;;20.30;53.60;;;;;;5029951;28;20044;-80
2023/04/02 11:42:40;;;;;;;4.78;0.80;;;20.60;53.30;;;;;;5048116;28;20039;-81
2023/04/02 11:45:22;;;;;;;3.10;0.70;;;20.70;51.80;;;;;;5065927;28;20542;-81
2023/04/02 11:48:00;;;;;;;3.55;0.80;;;20.80;48.60;;;;;;5043457;28;20505;-80
2023/04/02 11:50:37;;;;;;;2.97;0.90;;;20.90;48.70;;;;;;5049015;28;20513;-81
2023/04/02 11:53:15;;;;;;;3.90;0.95;;;21.10;48.00;;;;;;5045244;28;20060;-80
2023/04/02 11:55:43;;;;;;;3.05;0.90;;;21.30;48.50;;;;;;5064294;28;20029;-80
2023/04/02 11:58:27;;;;;;;2.03;0.70;;;21.60;48.80;;;;;;5065602;28;20056;-80
2023/04/02 12:01:07;;;;;;;3.25;0.68;;;22.10;48.90;;;;;;5069181;28;20455;-80
2023/04/02 12:04:07;;;;;;;3.78;0.60;;;22.40;47.00;;;;;;5049062;28;20028;-80
2023/04/02 12:06:45;;;;;;;2.28;0.80;;;22.70;47.00;;;;;;5051734;28;20086;-81
2023/04/02 12:09:22;;;;;;;3.95;0.73;;;23.20;47.20;;;;;;5071766;28;20028;-81
2023/04/02 12:11:59;;;;;;;2.38;0.60;;;23.50;45.10;;;;;;5044118;28;20036;-81
2023/04/02 12:14:37;;;;;;;2.60;0.80;;;23.60;43.90;;;;;;5061105;28;20059;-81
2023/04/02 12:17:29;;;;;;;3.67;0.77;;;23.70;42.90;;;;;;5067060;28;20032;-81
2023/04/02 12:20:20;;;;;;;2.80;0.70;;;23.70;41.90;;;;;;5047188;28;20060;-81
2023/04/02 12:22:54;;;;;;;4.55;0.80;;;23.70;41.00;;;;;;5050937;28;20104;-81
2023/04/02 12:25:23;;;;;;;2.70;0.98;;;23.60;41.60;;;;;;5068255;28;20033;-80
2023/04/02 12:28:09;;;;;;;3.92;1.00;;;23.60;42.20;;;;;;5045865;28;20461;-81
2023/04/02 12:30:36;;;;;;;3.55;0.80;;;23.70;40.70;;;;;;5039327;28;20404;-81
2023/04/02 12:33:29;;;;;;;3.45;0.73;;;23.80;40.90;;;;;;5067157;28;20029;-80
2023/04/02 12:35:57;;;;;;;3.73;0.63;;;23.80;40.00;;;;;;5062662;28;20036;-80
2023/04/02 12:38:26;;;;;;;2.28;0.50;;;23.90;40.50;;;;;;5065335;28;20036;-80
2023/04/02 12:40:58;;;;;;;3.35;0.85;;;24.00;40.20;;;;;;5064866;28;20063;-80
2023/04/02 12:43:32;;;;;;;5.72;0.60;;;24.20;39.70;;;;;;5052957;28;20037;-80
2023/04/02 12:46:08;;;;;;;2.60;0.70;;;24.30;39.30;;;;;;5068996;28;20099;-80
2023/04/02 12:48:35;;;;;;;2.55;0.50;;;24.20;38.80;;;;;;5033229;28;20025;-80
2023/04/02 12:51:02;;;;;;;2.83;0.60;;;24.10;39.30;;;;;;5045676;28;20031;-80
2023/04/02 12:53:30;;;;;;;2.80;0.82;;;24.20;39.40;;;;;;5051798;28;20559;-80
2023/04/02 12:55:56;;;;;;;3.58;0.77;;;24.30;39.50;;;;;;5047103;28;20453;-80
2023/04/02 12:58:41;;;;;;;3.42;0.80;;;24.50;40.30;;;;;;5040581;28;20045;-80
2023/04/02 13:01:30;;;;;;;2.45;0.70;;;24.70;37.90;;;;;;5037601;28;20896;-79
2023/04/02 13:04:10;;;;;;;3.58;0.82;;;24.80;37.50;;;;;;5033065;28;20040;-80
2023/04/02 13:06:38;;;;;;;2.78;0.80;;;24.90;37.80;;;;;;5052013;28;20021;-80
2023/04/02 13:09:06;;;;;;;3.40;0.82;;;25.10;37.30;;;;;;5051846;28;20031;-80
2023/04/02 13:11:40;;;;;;;2.88;0.70;;;25.20;36.60;;;;;;5043599;28;21184;-79
2023/04/02 13:14:18;;;;;;;1.70;0.55;;;25.20;37.00;;;;;;5063247;28;20029;-80
2023/04/02 13:16:45;;;;;;;3.13;0.70;;;25.30;36.60;;;;;;5049519;28;20025;-79
2023/04/02 13:19:21;;;;;;;3.17;0.98;;;25.40;36.90;;;;;;5053528;28;20036;-80
2023/04/02 13:21:47;;;;;;;4.30;0.60;;;25.50;37.10;;;;;;5043226;28;20043;-80
2023/04/02 13:24:20;;;;;;;2.47;0.60;;;25.60;37.40;;;;;;5052037;28;20104;-79
2023/04/02 13:26:49;;;;;;;3.80;0.73;;;25.60;36.30;;;;;;5053369;28;20025;-79
2023/04/02 13:29:27;;;;;;;2.55;0.60;;;25.60;36.60;;;;;;5054297;28;20112;-80
2023/04/02 13:31:55;;;;;;;3.05;0.77;;;25.70;35.60;;;;;;5043647;28;20033;-80
2023/04/02 13:34:21;;;;;;;2.28;0.60;;;25.80;36.20;;;;;;5053731;28;20025;-79